Time;durP1;ratioP1;P1;durP2;ratioP2;P2;SDS_P1;SDS_P2;PMS_P1;PMS_P2;Temp;Humidity;BMP_temperature;BMP_pressure;BME280_temperature;BME280_humidity;BME280_pressure;Samples;Min_cycle;Max_cycle;Signal;HPM_P1;HPM_P2
2022/09/21 00:00:04;;;;;;;1.25;1.15;;;;;;;12.37;78.41;102715.50;5027559;28;20293;-89
2022/09/21 00:02:30;;;;;;;1.20;1.00;;;;;;;12.37;78.30;102714.63;5061262;28;20051;-89
2022/09/21 00:04:56;;;;;;;1.98;1.15;;;;;;;12.37;78.42;102709.38;5028090;28;20319;-88
2022/09/21 00:07:21;;;;;;;1.20;1.05;;;;;;;12.36;78.56;102711.13;5041329;28;20029;-89
2022/09/21 00:09:47;;;;;;;1.20;1.10;;;;;;;12.36;78.41;102699.78;5069913;28;20035;-89
2022/09/21 00:12:12;;;;;;;1.30;1.20;;;;;;;12.35;78.72;102704.16;5028235;28;20043;-88
2022/09/21 00:14:38;;;;;;;1.25;1.00;;;;;;;12.36;78.52;102705.03;5028183;28;20036;-89
2022/09/21 00:17:03;;;;;;;1.10;1.00;;;;;;;12.36;78.45;102707.66;5033472;28;20067;-89
2022/09/21 00:19:30;;;;;;;2.00;1.17;;;;;;;12.35;78.52;102704.16;5044421;28;20082;-89
2022/09/21 00:21:56;;;;;;;1.10;1.00;;;;;;;12.36;78.50;102705.03;5040851;28;20045;-88
2022/09/21 00:24:21;;;;;;;1.17;1.08;;;;;;;12.36;78.72;102712.91;5044132;28;20086;-89
2022/09/21 00:26:47;;;;;;;1.13;1.02;;;;;;;12.35;78.66;102708.53;5060329;28;20052;-89
2022/09/21 00:29:13;;;;;;;0.77;0.77;;;;;;;12.35;78.91;102705.91;5039120;28;20028;-89
2022/09/21 00:31:39;;;;;;;1.30;1.17;;;;;;;12.35;79.04;102705.91;5061081;28;20035;-89
2022/09/21 00:34:06;;;;;;;2.25;1.33;;;;;;;12.35;79.00;102703.28;5043473;28;20032;-89
2022/09/21 00:36:32;;;;;;;1.60;1.17;;;;;;;12.35;79.29;102698.91;5060283;28;20081;-89
2022/09/21 00:39:00;;;;;;;0.90;0.90;;;;;;;12.36;79.14;102699.78;5043664;28;20036;-89
2022/09/21 00:41:28;;;;;;;1.70;1.60;;;;;;;12.34;79.75;102705.06;5060366;28;20236;-89
2022/09/21 00:44:15;;;;;;;2.53;1.50;;;;;;;12.35;79.68;102703.28;5060231;28;20066;-89
2022/09/21 00:46:42;;;;;;;1.45;1.35;;;;;;;12.35;79.72;102704.16;5075836;28;20059;-89
2022/09/21 00:49:09;;;;;;;1.17;1.08;;;;;;;12.35;79.86;102705.91;5060101;28;20017;-89
2022/09/21 00:51:35;;;;;;;1.30;1.20;;;;;;;12.34;80.35;102699.78;5060302;28;20301;-89
2022/09/21 00:54:08;;;;;;;2.28;1.52;;;;;;;12.34;80.36;102701.56;5043834;28;20681;-89
2022/09/21 00:56:35;;;;;;;3.67;1.30;;;;;;;12.34;80.25;102704.19;5078183;28;20051;-89
2022/09/21 00:59:02;;;;;;;1.85;1.15;;;;;;;12.35;80.14;102703.28;5060156;28;20115;-89
2022/09/21 01:01:29;;;;;;;1.33;1.23;;;;;;;12.34;80.48;102701.56;5060141;28;20029;-89
2022/09/21 01:03:56;;;;;;;1.77;1.20;;;;;;;12.33;80.24;102699.81;5044202;28;20221;-88
2022/09/21 01:06:22;;;;;;;3.00;1.40;;;;;;;12.34;80.44;102698.94;5044123;28;20091;-88
2022/09/21 01:08:52;;;;;;;1.25;1.10;;;;;;;12.34;79.98;102696.31;5060368;28;20354;-88
2022/09/21 01:11:33;;;;;;;1.17;1.00;;;;;;;12.33;80.26;102697.19;5078157;28;20086;-89
2022/09/21 01:14:22;;;;;;;0.93;0.90;;;;;;;12.31;79.85;102694.59;5059839;28;20029;-88
2022/09/21 01:17:09;;;;;;;1.15;1.05;;;;;;;12.31;79.77;102697.22;5074944;28;20036;-89
2022/09/21 01:19:53;;;;;;;1.35;0.98;;;;;;;12.31;79.54;102699.84;5068758;28;20086;-89
2022/09/21 01:22:56;;;;;;;1.08;0.90;;;;;;;12.29;79.74;102702.50;5061138;28;20043;-89
2022/09/21 01:25:37;;;;;;;1.35;0.98;;;;;;;12.29;79.57;102701.63;5076348;28;20070;-88
2022/09/21 01:28:12;;;;;;;1.20;0.98;;;;;;;12.27;79.40;102704.28;5059370;28;20099;-88
2022/09/21 01:30:40;;;;;;;0.88;0.82;;;;;;;12.27;79.20;102700.78;5077743;28;20343;-89
2022/09/21 01:33:15;;;;;;;1.63;1.00;;;;;;;12.26;79.50;102699.06;5028175;28;20028;-89
2022/09/21 01:35:49;;;;;;;1.40;1.15;;;;;;;12.24;79.30;102699.09;5059776;28;20036;-89
2022/09/21 01:38:21;;;;;;;1.02;0.93;;;;;;;12.24;79.28;102699.09;5077899;28;20355;-89
2022/09/21 01:40:55;;;;;;;1.13;0.90;;;;;;;12.24;79.56;102703.47;5059103;28;20028;-88
2022/09/21 01:43:31;;;;;;;0.75;0.70;;;;;;;12.22;79.32;102706.13;5077385;28;20312;-89
2022/09/21 01:46:00;;;;;;;2.85;0.80;;;;;;;12.23;79.07;102700.00;5077205;28;20053;-89
2022/09/21 01:48:30;;;;;;;1.10;0.68;;;;;;;12.21;78.98;102698.28;5076009;28;20107;-88
2022/09/21 01:50:58;;;;;;;1.20;0.80;;;;;;;12.21;79.21;102698.28;5043245;28;20104;-89
2022/09/21 01:53:38;;;;;;;1.20;0.90;;;;;;;12.20;78.87;102699.16;5059244;28;20032;-88
2022/09/21 01:56:37;;;;;;;1.58;1.00;;;;;;;12.18;78.80;102699.19;5058606;28;20024;-89
2022/09/21 01:59:10;;;;;;;1.48;0.90;;;;;;;12.17;79.01;102696.59;5054931;28;20051;-88
2022/09/21 02:01:43;;;;;;;1.40;0.80;;;;;;;12.16;78.84;102690.47;5069776;28;20028;-89
2022/09/21 02:04:11;;;;;;;0.63;0.60;;;;;;;12.15;79.23;102688.75;5056565;28;20099;-88
2022/09/21 02:06:44;;;;;;;0.68;0.68;;;;;;;12.14;79.19;102686.16;5077062;28;20369;-89
2022/09/21 02:09:11;;;;;;;0.90;0.60;;;;;;;12.12;79.02;102683.56;5058661;28;20228;-88
2022/09/21 02:11:41;;;;;;;0.70;0.70;;;;;;;12.10;79.15;102686.22;5042721;28;20024;-88
2022/09/21 02:14:09;;;;;;;1.67;0.60;;;;;;;12.09;79.21;102689.72;5064643;28;20064;-89
2022/09/21 02:17:13;;;;;;;0.73;0.73;;;;;;;12.09;78.94;102691.47;5058598;28;20028;-89
2022/09/21 02:19:45;;;;;;;1.23;0.70;;;;;;;12.07;78.92;102688.88;5058956;28;20031;-89
2022/09/21 02:22:28;;;;;;;0.98;0.80;;;;;;;12.06;79.31;102700.28;5058311;28;20028;-89
2022/09/21 02:25:02;;;;;;;1.88;0.50;;;;;;;12.05;79.24;102700.31;5076464;28;20068;-88
2022/09/21 02:27:55;;;;;;;0.80;0.80;;;;;;;12.02;79.12;102693.34;5058439;28;20032;-89
2022/09/21 02:30:23;;;;;;;0.70;0.70;;;;;;;12.03;79.17;102707.34;5059143;28;20099;-89
2022/09/21 02:32:55;;;;;;;2.85;0.70;;;;;;;12.01;79.22;102706.53;5058272;28;20205;-88
2022/09/21 02:35:29;;;;;;;1.95;0.75;;;;;;;12.00;79.35;102710.88;5058591;28;20040;-89
2022/09/21 02:38:38;;;;;;;1.20;0.77;;;;;;;11.99;79.37;102701.28;5076321;28;20350;-89
2022/09/21 02:41:07;;;;;;;0.75;0.60;;;;;;;11.98;79.41;102706.56;5049744;28;20060;-89
2022/09/21 02:43:32;;;;;;;;;;;;;;;11.97;79.33;102703.06;5076189;28;20304;-89
2022/09/21 02:46:04;;;;;;;0.57;0.57;;;;;;;11.97;79.07;102703.06;5075044;28;20108;-89
2022/09/21 02:48:42;;;;;;;0.50;0.50;;;;;;;11.96;78.94;102697.84;5076244;28;20095;-89
2022/09/21 02:51:18;;;;;;;0.55;0.55;;;;;;;11.94;79.30;102697.88;5076282;28;20070;-89
2022/09/21 02:53:46;;;;;;;0.75;0.60;;;;;;;11.93;79.29;102696.13;5058156;28;20331;-89
2022/09/21 02:56:12;;;;;;;0.85;0.70;;;;;;;11.92;79.33;102702.28;5075165;28;20278;-89
2022/09/21 02:58:42;;;;;;;0.90;0.68;;;;;;;11.93;79.46;102704.00;5075639;28;20305;-89
2022/09/21 03:01:11;;;;;;;0.73;0.52;;;;;;;11.91;79.52;102703.16;5075781;28;20364;-89
2022/09/21 03:03:37;;;;;;;1.15;0.80;;;;;;;11.89;79.29;102699.66;5057998;28;20350;-89
2022/09/21 03:06:03;;;;;;;2.75;0.98;;;;;;;11.89;79.46;102697.91;5057551;28;20020;-89
2022/09/21 03:08:29;;;;;;;1.50;0.90;;;;;;;11.87;79.18;102699.69;5037818;28;20048;-89
2022/09/21 03:10:56;;;;;;;1.10;0.60;;;;;;;11.87;79.12;102704.94;5054617;28;20032;-89
2022/09/21 03:13:22;;;;;;;0.60;0.60;;;;;;;11.87;79.26;102706.69;5075866;28;20178;-89
2022/09/21 03:15:47;;;;;;;0.80;0.73;;;;;;;11.85;79.23;102704.09;5075275;28;20357;-89
2022/09/21 03:18:13;;;;;;;1.45;0.63;;;;;;;11.84;79.34;102706.75;5041116;28;20059;-89
2022/09/21 03:20:44;;;;;;;0.85;0.60;;;;;;;11.83;79.34;102703.25;5041133;28;20078;-89
2022/09/21 03:23:11;;;;;;;0.80;0.70;;;;;;;11.81;79.10;102699.78;5074917;28;20024;-89
2022/09/21 03:25:36;;;;;;;0.68;0.68;;;;;;;11.81;79.27;102699.78;5075844;28;20043;-89
2022/09/21 03:28:02;;;;;;;0.70;0.70;;;;;;;11.81;79.43;102712.06;5039956;28;20024;-89
2022/09/21 03:30:28;;;;;;;0.60;0.60;;;;;;;11.78;79.25;102702.47;5057326;28;20100;-89
2022/09/21 03:32:54;;;;;;;0.80;0.80;;;;;;;11.78;79.16;102706.84;5087491;28;20036;-89
2022/09/21 03:35:22;;;;;;;1.98;0.82;;;;;;;11.77;79.18;102707.72;5057480;28;20082;-89
2022/09/21 03:37:48;;;;;;;0.80;0.77;;;;;;;11.76;79.05;102706.00;5074671;28;20044;-89
2022/09/21 03:40:15;;;;;;;0.70;0.70;;;;;;;11.74;79.27;102711.28;5040938;28;20051;-89
2022/09/21 03:42:41;;;;;;;0.90;0.75;;;;;;;11.74;79.37;102707.81;5057985;28;20236;-89
2022/09/21 03:45:08;;;;;;;0.65;0.65;;;;;;;11.72;79.25;102716.56;5040966;28;20074;-89
2022/09/21 03:47:33;;;;;;;0.77;0.77;;;;;;;11.71;79.14;102714.84;5074323;28;20035;-89
2022/09/21 03:49:59;;;;;;;1.10;1.00;;;;;;;11.69;79.25;102713.97;5040687;28;20029;-89
2022/09/21 03:52:24;;;;;;;0.85;0.85;;;;;;;11.68;79.04;102714.88;5041098;28;20040;-89
2022/09/21 03:54:50;;;;;;;0.60;0.60;;;;;;;11.66;79.38;102714.03;5057258;28;20315;-89
2022/09/21 03:57:15;;;;;;;0.90;0.70;;;;;;;11.65;79.29;102714.91;5041049;28;20060;-89
2022/09/21 03:59:41;;;;;;;1.38;0.95;;;;;;;11.63;79.29;102713.22;5040783;28;20039;-89
2022/09/21 04:02:06;;;;;;;0.70;0.70;;;;;;;11.64;79.23;102713.19;5057254;28;20328;-89
2022/09/21 04:04:32;;;;;;;1.27;0.80;;;;;;;11.62;79.27;102711.47;5057151;28;20055;-89
2022/09/21 04:06:58;;;;;;;0.70;0.70;;;;;;;11.61;79.33;102713.22;5058266;28;20106;-90
2022/09/21 04:09:23;;;;;;;0.80;0.80;;;;;;;11.60;79.24;102705.38;5073330;28;21220;-89
2022/09/21 04:11:49;;;;;;;0.70;0.70;;;;;;;11.58;79.55;102708.03;5075797;28;20036;-90
2022/09/21 04:14:14;;;;;;;2.95;0.90;;;;;;;11.58;79.17;102712.41;5040263;28;20032;-89
2022/09/21 04:16:40;;;;;;;1.00;0.90;;;;;;;11.55;79.25;102710.72;5057714;28;20040;-89
2022/09/21 04:19:05;;;;;;;1.85;0.80;;;;;;;11.54;79.41;102708.97;5040490;28;20183;-89
2022/09/21 04:21:32;;;;;;;0.95;0.85;;;;;;;11.54;79.38;102708.97;5074868;28;20051;-89
2022/09/21 04:23:57;;;;;;;0.90;0.90;;;;;;;11.52;79.18;102708.97;5074974;28;20136;-89
2022/09/21 04:26:28;;;;;;;0.70;0.70;;;;;;;11.51;79.56;102709.00;5074645;28;20036;-89
2022/09/21 04:28:55;;;;;;;0.88;0.85;;;;;;;11.50;79.39;102712.53;5068714;28;20028;-89
2022/09/21 04:31:21;;;;;;;3.60;0.90;;;;;;;11.48;79.34;102704.69;5042101;28;20045;-89
2022/09/21 04:33:48;;;;;;;1.27;1.05;;;;;;;11.47;79.38;102707.31;5064910;28;20113;-89
2022/09/21 04:36:14;;;;;;;0.80;0.80;;;;;;;11.48;79.56;102706.44;5057002;28;20288;-89
2022/09/21 04:38:39;;;;;;;1.10;0.80;;;;;;;11.46;79.58;102710.81;5057033;28;20077;-89
2022/09/21 04:41:05;;;;;;;1.50;1.15;;;;;;;11.45;79.47;102704.72;5077907;28;20300;-89
2022/09/21 04:43:31;;;;;;;1.48;1.00;;;;;;;11.44;79.56;102705.63;5077893;28;20531;-89
2022/09/21 04:45:56;;;;;;;1.15;1.05;;;;;;;11.45;79.68;102706.47;5060361;28;20041;-89
2022/09/21 04:48:22;;;;;;;1.63;1.08;;;;;;;11.44;79.71;102715.22;5057228;28;20053;-89
2022/09/21 04:50:48;;;;;;;1.10;1.00;;;;;;;11.44;79.86;102710.88;5074642;28;20062;-89
2022/09/21 04:53:14;;;;;;;0.93;0.93;;;;;;;11.43;79.73;102716.13;5060485;28;20051;-89
2022/09/21 04:55:39;;;;;;;0.82;0.82;;;;;;;11.43;79.97;102710.88;5060108;28;20029;-89
2022/09/21 04:58:05;;;;;;;1.08;0.90;;;;;;;11.43;79.91;102716.13;5060660;28;20209;-89
2022/09/21 05:00:30;;;;;;;1.17;1.10;;;;;;;11.42;79.97;102711.75;5059728;28;20075;-89
2022/09/21 05:02:57;;;;;;;0.93;0.93;;;;;;;11.42;80.10;102711.75;5078635;28;20081;-89
2022/09/21 05:05:23;;;;;;;1.00;1.00;;;;;;;11.42;80.49;102711.75;5059577;28;20242;-89
2022/09/21 05:07:48;;;;;;;1.55;1.45;;;;;;;11.42;80.30;102714.38;5027091;28;20031;-89
2022/09/21 05:10:14;;;;;;;1.00;0.90;;;;;;;11.41;80.29;102710.03;5039869;28;20240;-89
2022/09/21 05:12:42;;;;;;;1.30;1.00;;;;;;;11.40;80.48;102714.41;5040190;28;20025;-89
2022/09/21 05:15:10;;;;;;;1.43;1.33;;;;;;;11.40;80.45;102710.91;5058627;28;20039;-89
2022/09/21 05:17:36;;;;;;;1.00;1.00;;;;;;;11.39;80.30;102711.78;5056215;28;20282;-89
2022/09/21 05:20:02;;;;;;;1.27;1.02;;;;;;;11.38;80.63;102707.47;5076027;28;20042;-89
2022/09/21 05:22:28;;;;;;;1.13;1.05;;;;;;;11.38;80.54;102710.06;5073752;28;20174;-89
2022/09/21 05:24:54;;;;;;;1.38;1.27;;;;;;;11.36;80.47;102711.84;5067996;28;20056;-89
2022/09/21 05:27:19;;;;;;;1.20;1.10;;;;;;;11.36;80.34;102714.47;5057589;28;20132;-89
2022/09/21 05:29:45;;;;;;;1.20;1.10;;;;;;;11.34;80.21;102715.34;5075567;28;20048;-89
2022/09/21 05:32:43;;;;;;;1.00;1.00;;;;;;;11.34;80.37;102722.38;5041520;28;20097;-89
2022/09/21 05:35:21;;;;;;;1.20;1.13;;;;;;;11.33;80.40;102721.50;5024307;28;20086;-89
2022/09/21 05:38:01;;;;;;;1.33;1.23;;;;;;;11.31;80.13;102722.41;5057957;28;20020;-89
2022/09/21 05:40:27;;;;;;;1.05;1.00;;;;;;;11.30;80.27;102716.28;5074686;28;20048;-89
2022/09/21 05:42:52;;;;;;;1.48;1.20;;;;;;;11.29;80.32;102727.66;5075845;28;20028;-89
2022/09/21 05:45:20;;;;;;;1.00;1.00;;;;;;;11.28;80.16;102725.09;5055435;28;20328;-89
2022/09/21 05:48:15;;;;;;;1.13;1.13;;;;;;;11.27;80.38;102721.56;5054575;28;20107;-89
2022/09/21 05:51:12;;;;;;;1.50;1.38;;;;;;;11.28;80.21;102730.34;5075447;28;20498;-89
2022/09/21 05:53:53;;;;;;;1.42;1.30;;;;;;;11.25;80.46;102725.97;5075180;28;20043;-89
2022/09/21 05:56:41;;;;;;;1.70;1.40;;;;;;;11.26;80.64;102729.47;5057177;28;20043;-89
2022/09/21 05:59:44;;;;;;;1.50;1.40;;;;;;;11.26;80.81;102732.97;5075320;28;20047;-89
2022/09/21 06:02:47;;;;;;;2.38;1.58;;;;;;;11.26;80.97;102737.31;5057663;28;20047;-89
2022/09/21 06:05:14;;;;;;;2.15;1.25;;;;;;;11.25;81.05;102738.22;5025276;28;20395;-89
2022/09/21 06:07:40;;;;;;;1.30;1.20;;;;;;;11.25;81.37;102739.09;5040433;28;20202;-89
2022/09/21 06:10:07;;;;;;;1.33;1.23;;;;;;;11.26;81.32;102745.19;5075199;28;20033;-89
2022/09/21 06:12:33;;;;;;;1.42;1.33;;;;;;;11.24;81.27;102736.47;5074777;28;20033;-89
2022/09/21 06:14:58;;;;;;;2.50;1.38;;;;;;;11.24;81.48;102742.63;5037500;28;20274;-89
2022/09/21 06:17:26;;;;;;;1.40;1.30;;;;;;;11.23;81.73;102738.25;5064431;28;20036;-89
2022/09/21 06:19:52;;;;;;;1.42;1.30;;;;;;;11.24;81.85;102742.63;5047243;28;20042;-89
2022/09/21 06:22:19;;;;;;;1.40;1.30;;;;;;;11.23;81.74;102745.25;5056967;28;20040;-90
2022/09/21 06:24:47;;;;;;;1.45;1.35;;;;;;;11.24;81.99;102740.00;5037111;28;20076;-89
2022/09/21 06:27:12;;;;;;;1.47;1.37;;;;;;;11.22;81.93;102738.25;5051934;28;20032;-89
2022/09/21 06:29:38;;;;;;;1.70;0.90;;;;;;;11.22;81.96;102739.13;5030917;28;20618;-89
2022/09/21 06:32:03;;;;;;;2.35;1.13;;;;;;;11.24;82.24;102736.47;5020934;28;20033;-89
2022/09/21 06:34:29;;;;;;;2.35;1.50;;;;;;;11.22;82.18;102733.88;5071997;28;20096;-89
2022/09/21 06:36:55;;;;;;;1.45;1.35;;;;;;;11.24;82.39;102742.63;5039004;28;20115;-89
2022/09/21 06:39:20;;;;;;;1.40;1.30;;;;;;;11.24;82.34;102746.97;5048465;28;20373;-89
2022/09/21 06:41:46;;;;;;;1.73;1.60;;;;;;;11.24;82.82;102744.34;5057362;28;20344;-89
2022/09/21 06:44:11;;;;;;;1.58;1.48;;;;;;;11.23;82.77;102743.50;5069006;28;20095;-89
2022/09/21 06:46:37;;;;;;;4.30;1.60;;;;;;;11.24;82.76;102745.25;5061740;28;20402;-89
2022/09/21 06:49:02;;;;;;;2.30;1.55;;;;;;;11.24;83.00;102749.59;5037355;28;20043;-89
2022/09/21 06:51:28;;;;;;;2.45;1.83;;;;;;;11.25;82.96;102751.34;5055410;28;20342;-89
2022/09/21 06:53:55;;;;;;;1.63;1.50;;;;;;;11.24;83.10;102747.88;5038941;28;20043;-89
2022/09/21 06:56:21;;;;;;;2.45;1.85;;;;;;;11.24;83.16;102747.88;5035053;28;20036;-89
2022/09/21 06:58:47;;;;;;;3.78;1.90;;;;;;;11.24;83.27;102749.59;5047366;28;20051;-89
2022/09/21 07:01:14;;;;;;;4.53;1.98;;;;;;;11.24;83.37;102750.50;5071263;28;20044;-89
2022/09/21 07:03:41;;;;;;;1.58;1.48;;;;;;;11.25;83.30;102753.97;5071900;28;20092;-90
2022/09/21 07:06:07;;;;;;;1.95;1.73;;;;;;;11.25;83.36;102754.84;5050217;28;20090;-89
2022/09/21 07:08:34;;;;;;;1.92;1.83;;;;;;;11.25;83.64;102760.06;5072681;28;20044;-90
2022/09/21 07:11:00;;;;;;;2.90;1.80;;;;;;;11.26;84.03;102756.56;5069627;28;20032;-89
2022/09/21 07:13:31;;;;;;;1.88;1.77;;;;;;;11.24;83.77;102753.13;5050680;28;20267;-90
2022/09/21 07:15:57;;;;;;;1.60;1.50;;;;;;;11.26;84.18;102751.34;5066531;28;20040;-89
2022/09/21 07:18:28;;;;;;;2.00;1.90;;;;;;;11.28;84.14;102756.56;5019630;28;20121;-89
2022/09/21 07:20:53;;;;;;;2.22;2.03;;;;;;;11.29;84.39;102750.41;5037307;28;20266;-89
2022/09/21 07:23:21;;;;;;;3.55;1.85;;;;;;;11.30;84.64;102758.25;5030160;28;20069;-89
2022/09/21 07:25:49;;;;;;;2.25;2.00;;;;;;;11.30;84.49;102754.78;5031328;28;20043;-89
2022/09/21 07:28:15;;;;;;;2.35;1.65;;;;;;;11.31;84.59;102754.78;5062912;28;20323;-89
2022/09/21 07:30:41;;;;;;;1.83;1.73;;;;;;;11.33;84.61;102754.72;5051097;28;20033;-89
2022/09/21 07:33:07;;;;;;;1.60;1.50;;;;;;;11.34;84.75;102756.47;5049766;28;20024;-89
2022/09/21 07:35:33;;;;;;;1.95;1.75;;;;;;;11.33;84.94;102757.34;5048003;28;20341;-89
2022/09/21 07:38:00;;;;;;;2.60;1.92;;;;;;;11.37;85.23;102755.53;5049225;28;20025;-89
2022/09/21 07:40:26;;;;;;;2.03;1.77;;;;;;;11.37;85.19;102755.53;5045515;28;20049;-89
2022/09/21 07:42:51;;;;;;;3.30;2.00;;;;;;;11.34;85.72;102744.22;5049898;28;20092;-89
2022/09/21 07:45:17;;;;;;;4.20;2.00;;;;;;;11.37;85.53;102755.53;5049417;28;20045;-89
2022/09/21 07:47:42;;;;;;;1.98;1.88;;;;;;;11.39;85.96;102752.03;5028242;28;20044;-89
2022/09/21 07:50:08;;;;;;;4.47;2.05;;;;;;;11.40;86.11;102755.50;5030050;28;20284;-90
2022/09/21 07:52:34;;;;;;;3.53;2.38;;;;;;;11.40;86.05;102755.50;5047197;28;20074;-89
2022/09/21 07:54:59;;;;;;;3.78;1.85;;;;;;;11.42;86.24;102759.84;5049277;28;20029;-89
2022/09/21 08:00:10;;;;;;;2.35;2.10;;;;;;;11.43;86.48;102758.09;5045151;28;20479;-89
2022/09/21 08:02:36;;;;;;;3.50;2.13;;;;;;;11.43;86.58;102747.63;5041255;28;20044;-89
2022/09/21 08:05:04;;;;;;;1.90;1.80;;;;;;;11.47;86.98;102763.28;5023356;28;20101;-89
2022/09/21 08:07:30;;;;;;;2.90;1.60;;;;;;;11.46;87.01;102750.19;5046781;28;20220;-89
2022/09/21 08:09:58;;;;;;;4.63;1.90;;;;;;;11.47;86.82;102747.53;5049069;28;20032;-90
2022/09/21 08:12:23;;;;;;;3.03;1.83;;;;;;;11.48;87.02;102749.28;5041151;28;20040;-89
2022/09/21 08:14:48;;;;;;;2.15;1.90;;;;;;;11.51;87.17;102754.50;5042739;28;20045;-90
2022/09/21 08:17:14;;;;;;;2.47;2.20;;;;;;;11.52;87.37;102758.84;5049719;28;20041;-89
2022/09/21 08:19:40;;;;;;;1.60;1.40;;;;;;;11.52;87.40;102761.47;5044504;28;20209;-89
2022/09/21 08:22:06;;;;;;;3.45;1.90;;;;;;;11.55;87.59;102770.19;5039653;28;20029;-89
2022/09/21 08:24:32;;;;;;;1.92;1.75;;;;;;;11.55;87.54;102763.19;5062817;28;20063;-89
2022/09/21 08:26:58;;;;;;;2.47;1.70;;;;;;;11.57;87.65;102764.03;5034744;28;20036;-90
2022/09/21 08:29:24;;;;;;;1.83;1.60;;;;;;;11.58;87.61;102770.13;5073130;28;20360;-89
2022/09/21 08:31:51;;;;;;;1.70;1.60;;;;;;;11.60;87.91;102766.59;5066091;28;20052;-90
2022/09/21 08:34:18;;;;;;;2.13;1.52;;;;;;;11.58;88.03;102763.13;5072437;28;20047;-89
2022/09/21 08:36:44;;;;;;;4.22;2.20;;;;;;;11.61;88.17;102773.59;5036544;28;20036;-89
2022/09/21 08:39:10;;;;;;;3.42;1.83;;;;;;;11.62;88.14;102764.81;5035949;28;20112;-89
2022/09/21 08:41:47;;;;;;;3.22;2.08;;;;;;;11.63;88.18;102769.19;5036751;28;20057;-89
2022/09/21 08:44:18;;;;;;;5.47;2.00;;;;;;;11.64;88.30;102767.41;5069847;28;20217;-89
2022/09/21 08:46:47;;;;;;;2.50;1.80;;;;;;;11.66;88.37;102773.50;5052084;28;20066;-89
2022/09/21 08:49:23;;;;;;;1.88;1.50;;;;;;;11.65;88.35;102770.03;5070752;28;20049;-89
2022/09/21 08:52:11;;;;;;;4.35;1.60;;;;;;;11.68;88.01;102774.38;5072135;28;20024;-89
2022/09/21 08:55:06;;;;;;;3.25;1.83;;;;;;;11.69;87.79;102776.97;5053362;28;20095;-89
2022/09/21 08:57:33;;;;;;;3.25;1.60;;;;;;;11.70;87.69;102776.09;5061838;28;20028;-90
2022/09/21 09:00:00;;;;;;;2.10;1.60;;;;;;;11.70;87.41;102775.22;5042747;28;20078;-89
2022/09/21 09:03:06;;;;;;;3.85;1.75;;;;;;;11.71;87.19;102775.22;5072576;28;20082;-89
2022/09/21 09:05:50;;;;;;;6.93;1.55;;;;;;;11.72;86.24;102784.78;5047503;28;20029;-89
2022/09/21 09:08:46;;;;;;;6.35;1.67;;;;;;;11.74;85.98;102781.28;5066958;28;20367;-90
2022/09/21 09:11:40;;;;;;;9.50;1.65;;;;;;;11.76;85.37;102782.13;5067085;28;20043;-89
2022/09/21 09:14:27;;;;;;;7.40;1.30;;;;;;;11.78;83.09;102783.84;5068086;28;20036;-89
2022/09/21 09:16:55;;;;;;;4.07;1.20;;;;;;;11.81;83.82;102782.94;5072475;28;20071;-90
2022/09/21 09:19:36;;;;;;;5.25;1.30;;;;;;;11.83;83.72;102781.16;5049611;28;20329;-89
2022/09/21 09:22:06;;;;;;;10.20;1.35;;;;;;;11.87;84.20;102780.22;5065657;28;20350;-89
2022/09/21 09:24:40;;;;;;;0.70;0.70;;;;;;;11.90;84.52;102785.47;5067058;28;20558;-89
2022/09/21 09:27:18;;;;;;;5.32;1.00;;;;;;;11.92;83.88;102788.06;5071650;28;20056;-90
2022/09/21 09:30:01;;;;;;;4.97;1.33;;;;;;;11.95;84.30;102782.75;5067026;28;20418;-89
2022/09/21 09:32:50;;;;;;;5.00;1.40;;;;;;;11.97;83.14;102779.22;5049250;28;20033;-90
2022/09/21 09:35:35;;;;;;;2.80;0.90;;;;;;;12.00;82.60;102781.78;5062963;28;20058;-89
2022/09/21 09:38:10;;;;;;;5.10;1.00;;;;;;;12.02;82.42;102780.00;5056032;28;20032;-89
2022/09/21 09:40:55;;;;;;;2.03;0.90;;;;;;;12.06;82.71;102786.97;5046814;28;20028;-89
2022/09/21 09:43:39;;;;;;;10.70;0.98;;;;;;;12.07;79.10;102783.41;5048209;28;20075;-89
2022/09/21 09:46:23;;;;;;;3.15;1.00;;;;;;;12.12;78.73;102774.63;5066437;28;20032;-90
2022/09/21 09:49:00;;;;;;;1.63;0.57;;;;;;;12.19;79.65;102778.88;5068566;28;20027;-89
2022/09/21 09:51:26;;;;;;;3.90;0.80;;;;;;;12.25;79.41;102784.03;5065444;28;20055;-89
2022/09/21 09:53:58;;;;;;;5.63;0.95;;;;;;;12.31;79.55;102781.28;5051757;28;20347;-89
2022/09/21 09:56:26;;;;;;;2.03;0.90;;;;;;;12.36;78.57;102776.81;5064270;28;20032;-89
2022/09/21 09:59:05;;;;;;;4.35;1.05;;;;;;;12.41;77.84;102777.63;5068790;28;20028;-90
2022/09/21 10:01:45;;;;;;;2.72;0.95;;;;;;;12.52;76.92;102777.44;5066123;28;20224;-90
2022/09/21 10:04:13;;;;;;;3.85;0.95;;;;;;;12.55;77.46;102774.75;5049437;28;20539;-90
2022/09/21 10:06:39;;;;;;;2.53;0.85;;;;;;;12.61;77.69;102776.41;5049980;28;20032;-89
2022/09/21 10:09:25;;;;;;;3.75;0.93;;;;;;;12.65;77.61;102780.69;5069881;28;20043;-89
2022/09/21 10:11:53;;;;;;;5.05;0.85;;;;;;;12.68;78.03;102775.41;5064263;28;20240;-89
2022/09/21 10:14:22;;;;;;;4.17;1.07;;;;;;;12.71;76.53;102771.81;5066065;28;20035;-89
2022/09/21 10:16:51;;;;;;;1.35;0.57;;;;;;;12.75;76.37;102774.38;5066226;28;20036;-90
2022/09/21 10:19:23;;;;;;;6.55;1.08;;;;;;;12.79;75.55;102773.41;5034127;28;20075;-89
2022/09/21 10:21:55;;;;;;;3.33;1.15;;;;;;;12.81;74.59;102769.00;5055231;28;20377;-89
2022/09/21 10:24:22;;;;;;;2.33;0.70;;;;;;;12.85;74.34;102773.28;5071803;28;20229;-89
2022/09/21 10:27:20;;;;;;;4.78;0.80;;;;;;;12.93;73.42;102774.91;5072652;28;20459;-89
2022/09/21 10:29:48;;;;;;;2.78;0.73;;;;;;;12.97;72.87;102774.84;5037607;28;20080;-90
2022/09/21 10:32:16;;;;;;;1.20;1.02;;;;;;;13.00;72.19;102771.25;5068660;28;20496;-89
2022/09/21 10:35:20;;;;;;;4.35;1.00;;;;;;;13.00;70.21;102761.59;5055229;28;20028;-90
2022/09/21 10:37:53;;;;;;;1.95;0.80;;;;;;;13.03;71.83;102768.56;5063366;28;20036;-90
2022/09/21 10:40:18;;;;;;;1.63;0.60;;;;;;;13.09;71.93;102765.81;5055326;28;20385;-89
2022/09/21 10:42:45;;;;;;;2.85;0.70;;;;;;;13.11;72.20;102766.63;5055070;28;20024;-90
2022/09/21 10:45:16;;;;;;;1.00;0.60;;;;;;;13.16;71.94;102762.16;5054210;28;20410;-89
2022/09/21 10:47:46;;;;;;;6.25;1.10;;;;;;;13.18;73.32;102762.97;5048339;28;20020;-89
2022/09/21 10:50:30;;;;;;;2.80;0.65;;;;;;;13.20;73.52;102763.81;5068808;28;20028;-89
2022/09/21 10:53:09;;;;;;;3.75;0.90;;;;;;;13.21;74.48;102760.31;5050042;28;20270;-90
2022/09/21 10:56:15;;;;;;;4.30;0.70;;;;;;;13.24;75.81;102757.63;5062501;28;20037;-90
2022/09/21 10:59:12;;;;;;;3.53;0.63;;;;;;;13.28;75.61;102755.78;4954917;28;20043;-89
2022/09/21 11:01:44;;;;;;;5.38;0.88;;;;;;;13.30;75.31;102756.63;4968370;28;20328;-90
2022/09/21 11:04:15;;;;;;;5.80;1.23;;;;;;;13.31;71.36;102760.13;5038760;28;20067;-90
2022/09/21 11:06:46;;;;;;;2.55;0.73;;;;;;;13.34;74.35;102755.66;5063653;28;20036;-90
2022/09/21 11:09:21;;;;;;;1.48;0.50;;;;;;;13.36;75.58;102756.50;5069547;28;20620;-89
2022/09/21 11:12:02;;;;;;;1.00;0.63;;;;;;;13.37;74.70;102757.34;5052588;28;20047;-90
2022/09/21 11:14:48;;;;;;;3.55;0.85;;;;;;;13.38;74.89;102752.06;5065290;28;20021;-89
2022/09/21 11:17:25;;;;;;;2.53;0.85;;;;;;;13.38;74.17;102752.06;5048821;28;20335;-89
2022/09/21 11:20:04;;;;;;;1.38;0.55;;;;;;;13.37;74.06;102747.72;5060496;28;20044;-90
2022/09/21 11:23:16;;;;;;;4.43;1.15;;;;;;;13.39;72.47;102753.81;5069364;28;20024;-89
2022/09/21 11:26:05;;;;;;;3.35;0.60;;;;;;;13.40;71.62;102744.13;5017713;28;20046;-90
2022/09/21 11:28:49;;;;;;;;;;;;;;;13.42;70.93;102750.22;5046486;28;20032;-90
2022/09/21 11:31:32;;;;;;;2.90;0.50;;;;;;;13.45;71.37;102750.19;5049347;28;20242;-89
2022/09/21 11:34:23;;;;;;;2.15;0.82;;;;;;;13.49;74.45;102745.72;5051718;28;20095;-90
2022/09/21 11:37:36;;;;;;;3.22;0.60;;;;;;;13.52;75.32;102740.38;5068522;28;20040;-90
2022/09/21 11:40:21;;;;;;;3.53;0.57;;;;;;;13.53;75.31;102734.19;5032712;28;20036;-90
2022/09/21 11:43:24;;;;;;;1.27;0.50;;;;;;;13.53;74.29;102740.31;5061235;28;20036;-90
2022/09/21 11:46:09;;;;;;;2.75;0.85;;;;;;;13.53;75.25;102736.84;5065994;28;20094;-90
2022/09/21 11:49:17;;;;;;;1.70;0.70;;;;;;;13.56;76.67;102734.13;5065562;28;20036;-90
2022/09/21 11:52:20;;;;;;;1.88;0.68;;;;;;;13.58;73.62;102729.69;5031948;28;20040;-90